Time;durP1;ratioP1;P1;durP2;ratioP2;P2;SDS_P1;SDS_P2;PMS_P1;PMS_P2;Temp;Humidity;BMP_temperature;BMP_pressure;BME280_temperature;BME280_humidity;BME280_pressure;Samples;Min_cycle;Max_cycle;Signal;HPM_P1;HPM_P2
2022/08/28 00:03:30;;;;;;;24.15;16.12;;;;;;;22.17;80.14;100024.36;3504656;82;32148;-87
2022/08/28 00:08:31;;;;;;;24.32;15.80;;;;;;;22.15;80.39;100016.27;3496653;82;99263;-87
2022/08/28 00:13:32;;;;;;;23.75;15.20;;;;;;;22.12;80.68;100016.56;3506379;82;32216;-87
2022/08/28 00:18:33;;;;;;;19.85;15.45;;;;;;;22.08;81.04;100027.78;3499181;82;99361;-87
2022/08/28 00:23:35;;;;;;;21.95;15.83;;;;;;;22.08;81.40;100031.98;3508771;82;31666;-86
2022/08/28 00:28:36;;;;;;;19.98;14.43;;;;;;;22.07;81.35;100029.03;3497827;82;99353;-87
2022/08/28 00:33:37;;;;;;;18.95;14.45;;;;;;;22.01;81.54;100023.88;3500133;82;31646;-87
2022/08/28 00:38:38;;;;;;;20.32;14.87;;;;;;;21.99;81.85;100024.95;3487831;82;99279;-87
2022/08/28 00:43:44;;;;;;;19.37;14.75;;;;;;;22.00;81.96;100023.70;3503486;82;31775;-83
2022/08/28 00:48:47;;;;;;;20.02;14.53;;;;;;;21.98;81.99;100026.20;3501085;83;99484;-87
2022/08/28 00:53:49;;;;;;;21.65;14.55;;;;;;;21.95;82.43;100015.30;3489776;83;31591;-88
2022/08/28 00:58:52;;;;;;;21.55;15.40;;;;;;;21.95;82.40;100016.70;3487114;83;99407;-87
2022/08/28 01:03:53;;;;;;;18.52;13.05;;;;;;;21.92;82.29;100010.63;3505631;83;31681;-87
2022/08/28 01:08:54;;;;;;;19.25;14.85;;;;;;;21.89;82.46;100010.14;3496820;82;99272;-87
2022/08/28 01:13:58;;;;;;;18.00;14.40;;;;;;;21.85;82.31;100009.51;3487473;82;32367;-86
2022/08/28 01:18:59;;;;;;;18.35;13.95;;;;;;;21.81;82.59;100019.31;3493132;82;99485;-87
2022/08/28 01:24:14;;;;;;;19.90;13.70;;;;;;;21.76;82.94;100009.50;3506381;82;30880;-87
2022/08/28 01:29:15;;;;;;;18.87;13.38;;;;;;;21.75;83.04;100009.31;3497392;82;99483;-87
2022/08/28 01:34:16;;;;;;;17.40;13.65;;;;;;;21.72;83.13;100007.46;3504457;83;31880;-86
2022/08/28 01:39:21;;;;;;;20.30;13.00;;;;;;;21.68;83.38;100002.61;3498450;82;99166;-87
2022/08/28 01:44:25;;;;;;;22.13;15.30;;;;;;;21.63;83.38;99998.98;3503318;82;78256;-87
2022/08/28 01:49:28;;;;;;;18.32;14.30;;;;;;;21.59;83.42;100003.19;3491284;82;99005;-87
2022/08/28 01:54:29;;;;;;;17.07;13.28;;;;;;;21.55;83.61;100007.53;3440910;83;31910;-87
2022/08/28 01:59:31;;;;;;;19.32;13.55;;;;;;;21.52;83.69;100008.44;3425511;84;99167;-87
2022/08/28 02:04:32;;;;;;;20.72;13.43;;;;;;;21.49;83.67;100015.58;3416194;83;32583;-87
2022/08/28 02:09:33;;;;;;;18.98;14.43;;;;;;;21.42;83.96;100018.03;3420105;84;99069;-87
2022/08/28 02:14:34;;;;;;;17.00;13.48;;;;;;;21.38;84.17;100016.02;3444448;84;32326;-87
2022/08/28 02:19:36;;;;;;;20.82;14.23;;;;;;;21.37;84.10;100025.62;3419033;84;99036;-88
2022/08/28 02:24:37;;;;;;;18.00;13.55;;;;;;;21.34;84.42;100023.77;3436719;84;31793;-88
2022/08/28 02:29:38;;;;;;;18.77;13.78;;;;;;;21.33;84.45;100020.81;3431513;84;99089;-88
2022/08/28 02:34:40;;;;;;;19.80;13.75;;;;;;;21.31;84.38;100019.71;3434411;84;29924;-87
2022/08/28 02:39:42;;;;;;;19.35;14.05;;;;;;;21.26;84.62;100012.67;3426142;84;99296;-88
2022/08/28 02:44:43;;;;;;;20.08;15.50;;;;;;;21.21;84.74;100007.66;3447894;83;59893;-88
2022/08/28 02:49:44;;;;;;;17.50;13.65;;;;;;;21.21;84.89;100007.66;3440695;83;99147;-88
2022/08/28 02:54:46;;;;;;;19.10;13.93;;;;;;;21.18;84.98;100004.41;3453215;84;32070;-87
2022/08/28 02:59:47;;;;;;;22.17;15.78;;;;;;;21.13;85.06;100011.20;3448163;84;99128;-88
2022/08/28 03:04:48;;;;;;;21.02;15.78;;;;;;;21.12;85.24;100016.64;3433843;84;32329;-88
2022/08/28 03:09:49;;;;;;;21.75;16.32;;;;;;;21.09;85.45;100021.77;3426983;84;99222;-88
2022/08/28 03:14:52;;;;;;;24.75;17.10;;;;;;;21.06;85.40;100017.87;3436572;84;65272;-87
2022/08/28 03:19:53;;;;;;;22.13;15.40;;;;;;;21.04;85.73;100018.92;3431731;84;99172;-87
2022/08/28 03:24:54;;;;;;;22.17;16.40;;;;;;;21.04;85.57;100013.33;3435659;85;31702;-88
2022/08/28 03:29:56;;;;;;;23.95;17.50;;;;;;;20.99;85.75;100024.34;3431148;84;99396;-87
2022/08/28 03:34:57;;;;;;;26.40;17.62;;;;;;;20.96;86.13;100029.44;3435119;85;31633;-88
2022/08/28 03:39:59;;;;;;;23.57;18.23;;;;;;;20.93;86.17;100028.34;3427850;84;99149;-88
2022/08/28 03:45:00;;;;;;;27.85;18.40;;;;;;;20.88;86.50;100021.14;3429985;84;31693;-87
2022/08/28 03:50:03;;;;;;;28.55;19.00;;;;;;;20.82;87.12;100037.71;3430093;84;99092;-87
2022/08/28 03:55:07;;;;;;;32.88;19.45;;;;;;;20.79;87.14;100031.65;3385874;84;31667;-86
2022/08/28 04:00:12;;;;;;;28.07;18.62;;;;;;;20.82;87.04;100025.77;3383093;85;99557;-87
2022/08/28 04:05:13;;;;;;;26.35;18.80;;;;;;;20.81;87.32;100040.35;3378261;85;31736;-86
2022/08/28 04:10:15;;;;;;;25.50;18.55;;;;;;;20.81;87.32;100045.95;3373804;85;99301;-87
2022/08/28 04:15:16;;;;;;;27.58;19.65;;;;;;;20.78;87.46;100043.28;3385788;85;54990;-87
2022/08/28 04:20:19;;;;;;;26.73;18.95;;;;;;;20.80;87.53;100041.59;3372154;85;99303;-88
2022/08/28 04:25:20;;;;;;;28.52;22.60;;;;;;;20.83;87.23;100049.69;3374302;85;44488;-87
2022/08/28 04:30:22;;;;;;;29.02;20.70;;;;;;;20.79;87.31;100048.42;3372842;85;99293;-87
2022/08/28 04:35:23;;;;;;;28.73;21.60;;;;;;;20.79;87.37;100042.05;3373471;85;43123;-87
2022/08/28 04:40:24;;;;;;;25.88;20.27;;;;;;;20.83;87.48;100042.70;3348039;86;99359;-87
2022/08/28 04:45:26;;;;;;;27.32;20.20;;;;;;;20.83;87.41;100042.09;3504631;82;32897;-88
2022/08/28 04:50:26;;;;;;;28.57;20.08;;;;;;;20.86;87.49;100046.77;3490976;82;99001;-87
2022/08/28 04:55:28;;;;;;;35.15;22.98;;;;;;;20.88;87.42;100049.11;3500957;82;33258;-87
2022/08/28 05:00:29;;;;;;;28.42;19.90;;;;;;;20.88;87.50;100044.91;3486879;82;98965;-87
2022/08/28 05:05:31;;;;;;;29.65;20.57;;;;;;;20.89;87.46;100043.70;3509292;82;32637;-87
2022/08/28 05:10:34;;;;;;;26.05;20.10;;;;;;;20.93;87.32;100049.31;3493999;82;99091;-86
2022/08/28 05:15:43;;;;;;;25.82;18.75;;;;;;;20.98;87.29;100051.53;3500562;82;31693;-87
2022/08/28 05:20:46;;;;;;;28.38;20.68;;;;;;;20.98;87.08;100054.33;3502669;82;98687;-87
2022/08/28 05:25:47;;;;;;;30.97;20.82;;;;;;;20.98;87.12;100041.73;3501754;83;31638;-86
2022/08/28 05:30:49;;;;;;;27.00;19.67;;;;;;;21.00;87.22;100039.89;3504683;82;98958;-86
2022/08/28 05:35:50;;;;;;;25.95;20.05;;;;;;;21.04;87.21;100053.14;3500358;82;31623;-85
2022/08/28 05:40:51;;;;;;;29.85;20.92;;;;;;;21.08;87.12;100057.99;3494826;82;98840;-86
2022/08/28 05:46:08;;;;;;;33.98;21.77;;;;;;;21.16;87.11;100062.07;3498755;82;30427;-87
2022/08/28 05:51:11;;;;;;;;;;;;;;;21.23;87.36;100058.99;3500842;82;26767;-87
2022/08/28 05:56:19;;;;;;;31.27;21.10;;;;;;;21.26;87.58;100061.66;3420122;82;3152579;-88
2022/08/28 06:01:33;;;;;;;27.13;20.85;;;;;;;21.25;87.31;100064.94;3471410;83;31726;-88
2022/08/28 06:06:38;;;;;;;26.60;18.82;;;;;;;21.30;86.97;100067.91;3468131;83;98815;-85
2022/08/28 06:11:40;;;;;;;27.97;20.73;;;;;;;21.41;86.77;100070.31;3471354;83;36839;-85
2022/08/28 06:16:45;;;;;;;28.45;19.60;;;;;;;21.48;86.94;100074.23;3465324;83;98959;-86
2022/08/28 06:21:47;;;;;;;27.20;19.37;;;;;;;21.57;86.78;100076.45;3474096;83;25846;-88
2022/08/28 06:26:48;;;;;;;24.32;18.42;;;;;;;21.66;86.77;100079.91;3473903;82;99120;-87
2022/08/28 06:32:03;;;;;;;24.35;18.15;;;;;;;21.77;86.43;100086.70;3472899;83;31763;-86
2022/08/28 06:37:04;;;;;;;24.85;19.55;;;;;;;21.87;86.31;100086.10;3474027;82;99338;-86
2022/08/28 06:42:05;;;;;;;31.25;20.95;;;;;;;21.98;86.09;100089.25;3484038;83;31621;-87
2022/08/28 06:47:07;;;;;;;24.50;19.30;;;;;;;22.00;86.04;100086.75;3475299;83;99373;-87
2022/08/28 06:52:08;;;;;;;24.77;18.42;;;;;;;22.12;85.96;100083.84;3478393;83;32857;-87
2022/08/28 06:57:09;;;;;;;27.00;20.00;;;;;;;22.24;85.85;100094.14;3500548;83;99218;-88
2022/08/28 07:02:11;;;;;;;32.58;21.50;;;;;;;22.29;86.13;100092.77;3477046;82;32347;-87
2022/08/28 07:07:12;;;;;;;24.75;18.98;;;;;;;22.38;86.21;100091.36;3503261;82;99323;-87
2022/08/28 07:12:15;;;;;;;24.82;19.02;;;;;;;22.49;85.81;100100.13;3493654;82;32586;-87
2022/08/28 07:17:16;;;;;;;27.95;20.48;;;;;;;22.62;85.49;100109.21;3484029;82;99299;-88
2022/08/28 07:22:17;;;;;;;28.20;19.30;;;;;;;22.76;85.19;100104.37;3505437;82;31888;-88
2022/08/28 07:27:21;;;;;;;26.33;19.02;;;;;;;22.83;85.16;100095.66;3464888;82;98848;-88
2022/08/28 07:32:22;;;;;;;25.02;19.30;;;;;;;22.97;84.96;100100.63;3504051;83;86707;-87
2022/08/28 07:37:23;;;;;;;24.82;17.95;;;;;;;23.17;84.76;100100.93;3489068;82;99131;-88
2022/08/28 07:47:44;;;;;;;25.27;17.85;;;;;;;23.52;84.08;100098.70;3490756;82;99227;-87
2022/08/28 07:52:45;;;;;;;21.73;16.52;;;;;;;23.74;83.38;100093.63;3491850;82;31708;-87
2022/08/28 07:57:48;;;;;;;20.50;16.73;;;;;;;23.92;82.88;100106.22;3491675;81;99125;-88
2022/08/28 08:02:49;;;;;;;20.43;16.10;;;;;;;24.08;82.87;100098.80;3504579;82;25860;-89
2022/08/28 08:07:51;;;;;;;23.77;17.48;;;;;;;24.38;82.48;100100.52;3492060;82;99269;-89
2022/08/28 08:12:52;;;;;;;20.50;14.50;;;;;;;24.63;81.99;100103.50;3494207;82;31665;-88
2022/08/28 08:17:53;;;;;;;22.45;14.78;;;;;;;24.91;81.40;100102.79;3496722;82;99081;-87
2022/08/28 08:22:55;;;;;;;18.25;14.83;;;;;;;25.25;80.72;100108.47;3496369;82;33850;-87
2022/08/28 08:27:56;;;;;;;18.50;14.38;;;;;;;25.52;79.81;100111.00;3471939;82;99317;-88
2022/08/28 08:32:57;;;;;;;20.23;13.28;;;;;;;25.85;79.16;100115.16;3509982;81;32222;-88
2022/08/28 08:37:58;;;;;;;17.07;13.03;;;;;;;26.27;78.47;100126.09;3501033;82;99208;-87
2022/08/28 08:43:01;;;;;;;17.35;11.70;;;;;;;26.68;77.71;100125.66;3503776;83;32589;-89
2022/08/28 08:48:03;;;;;;;17.48;13.95;;;;;;;27.07;76.16;100131.13;3497774;81;99125;-88
2022/08/28 08:53:24;;;;;;;16.77;12.85;;;;;;;27.56;75.43;100136.55;3502057;82;47904;-88
2022/08/28 08:58:39;;;;;;;17.67;11.53;;;;;;;28.06;74.04;100130.70;3498550;82;99262;-89
2022/08/28 09:03:58;;;;;;;15.03;11.12;;;;;;;28.31;72.18;100134.09;3505504;82;28542;-89
2022/08/28 09:09:02;;;;;;;15.60;11.55;;;;;;;28.44;70.76;100140.11;3503451;82;99264;-88
2022/08/28 09:14:15;;;;;;;17.65;11.80;;;;;;;28.64;69.96;100138.56;3501591;82;26442;-89
2022/08/28 09:19:19;;;;;;;14.50;11.55;;;;;;;28.70;69.40;100145.66;3496566;82;99326;-88
2022/08/28 09:24:23;;;;;;;;;;;;;;;28.83;68.71;100154.48;3476589;82;34790;-88
2022/08/28 09:29:30;;;;;;;15.78;11.10;;;;;;;28.71;66.58;100165.64;3493721;82;84894;-88
2022/08/28 09:34:33;;;;;;;15.53;12.00;;;;;;;28.72;67.70;100157.27;3501611;82;26339;-87
2022/08/28 09:39:34;;;;;;;14.87;11.53;;;;;;;28.69;67.07;100154.81;3497065;82;98838;-88
2022/08/28 09:44:56;;;;;;;14.33;11.43;;;;;;;28.53;66.57;100158.33;3500151;82;41262;-88
2022/08/28 09:50:21;;;;;;;21.50;12.20;;;;;;;28.49;66.22;100158.44;3505075;82;98557;-88
2022/08/28 09:55:59;;;;;;;15.20;11.38;;;;;;;28.30;66.34;100153.78;3494171;82;25888;-89
2022/08/28 10:01:31;;;;;;;17.55;12.50;;;;;;;28.29;66.20;100159.94;3465676;83;67223;-88
2022/08/28 10:06:36;;;;;;;21.33;12.15;;;;;;;28.30;66.16;100155.20;3492572;82;99183;-89
2022/08/28 10:11:57;;;;;;;17.67;12.47;;;;;;;28.33;66.05;100159.08;3529460;82;52206;-90
2022/08/28 10:17:04;;;;;;;20.48;13.53;;;;;;;28.37;65.97;100163.22;3482197;82;99045;-90
2022/08/28 10:22:30;;;;;;;16.57;12.20;;;;;;;28.42;65.72;100156.05;3493860;82;33456;-88
2022/08/28 10:28:06;;;;;;;18.00;12.45;;;;;;;28.39;65.52;100166.34;3481194;82;99223;-88
2022/08/28 10:33:25;;;;;;;15.72;12.47;;;;;;;28.35;65.41;100165.78;3501719;83;28376;-88
2022/08/28 10:38:46;;;;;;;16.40;11.70;;;;;;;28.30;65.18;100165.73;3492527;82;99220;-87
2022/08/28 10:43:53;;;;;;;18.30;12.73;;;;;;;28.14;65.23;100167.17;3474722;82;62220;-87
2022/08/28 10:49:11;;;;;;;15.08;11.55;;;;;;;28.07;65.30;100177.52;3494203;83;142645;-87
2022/08/28 10:54:26;;;;;;;16.75;12.25;;;;;;;28.00;65.21;100172.33;3505429;82;26649;-88
2022/08/28 10:59:31;;;;;;;14.68;11.08;;;;;;;27.92;65.28;100182.56;3507635;82;133738;-87
2022/08/28 11:04:33;;;;;;;15.72;11.40;;;;;;;27.77;65.41;100186.74;3517410;82;26189;-85
2022/08/28 11:09:44;;;;;;;15.20;11.67;;;;;;;27.61;65.67;100191.59;3496187;81;1128734;-87
2022/08/28 11:14:50;;;;;;;14.73;11.48;;;;;;;27.55;65.70;100187.31;3509967;82;25871;-88
2022/08/28 11:20:21;;;;;;;14.25;11.05;;;;;;;27.51;66.03;100189.58;3501592;82;158320;-86
2022/08/28 11:25:34;;;;;;;16.40;11.50;;;;;;;27.48;66.09;100194.83;3494363;82;1116912;-89
2022/08/28 11:30:45;;;;;;;17.80;11.47;;;;;;;27.44;66.22;100198.50;3478809;82;205397;-88
2022/08/28 11:35:47;;;;;;;14.80;10.45;;;;;;;27.43;66.27;100204.02;3472829;82;443280;-89
2022/08/28 11:40:59;;;;;;;15.23;10.80;;;;;;;27.46;66.40;100209.32;3501924;82;390348;-86
2022/08/28 11:46:04;;;;;;;13.05;10.05;;;;;;;27.44;66.40;100207.61;3492427;82;181146;-88
2022/08/28 11:51:41;;;;;;;15.83;10.37;;;;;;;27.49;66.35;100218.20;3426129;82;2869068;-88
2022/08/28 11:57:00;;;;;;;15.83;9.98;;;;;;;27.51;66.43;100215.02;3467523;82;305357;-87
2022/08/28 12:02:47;;;;;;;;;;;;;;;;;;;;;
2022/08/28 12:07:59;;;;;;;14.28;9.08;;;;;;;27.51;66.42;100226.98;3474910;82;137670;-89
2022/08/28 12:13:13;;;;;;;12.53;9.08;;;;;;;27.46;66.52;100229.88;3497604;82;285251;-87
2022/08/28 12:18:15;;;;;;;17.07;9.73;;;;;;;27.44;66.69;100227.40;3424199;82;522701;-86
2022/08/28 12:23:56;;;;;;;13.05;8.35;;;;;;;27.34;66.43;100218.92;3493698;82;43972;-90
2022/08/28 12:29:03;;;;;;;13.40;7.50;;;;;;;27.22;67.17;100221.48;3487554;82;98857;-89
2022/08/28 12:34:08;;;;;;;16.97;8.63;;;;;;;27.15;67.47;100228.33;3477382;84;26499;-89
2022/08/28 12:39:15;;;;;;;;;;;;;;;27.20;67.72;100221.98;3494990;82;98874;-89
2022/08/28 12:44:19;;;;;;;10.50;7.55;;;;;;;27.18;67.98;100222.36;3501190;82;26303;-88
2022/08/28 12:49:34;;;;;;;11.43;7.37;;;;;;;27.19;68.14;100222.49;3492984;83;98498;-88
2022/08/28 12:54:35;;;;;;;11.88;8.05;;;;;;;27.16;68.01;100219.98;3496812;82;26530;-88
2022/08/28 12:59:44;;;;;;;12.10;7.53;;;;;;;27.17;68.18;100224.39;3467154;82;98764;-89
2022/08/28 13:05:05;;;;;;;11.78;8.20;;;;;;;27.09;67.75;100214.75;3432027;84;31169;-87
2022/08/28 13:10:20;;;;;;;11.83;7.85;;;;;;;27.10;67.74;100219.15;3436781;82;98817;-86
2022/08/28 13:16:00;;;;;;;13.08;8.53;;;;;;;26.92;67.94;100218.65;3381139;83;26926;-89
2022/08/28 13:21:24;;;;;;;13.22;7.87;;;;;;;26.90;68.21;100216.31;3449265;83;31749;-88
2022/08/28 13:26:36;;;;;;;12.03;7.83;;;;;;;26.91;68.13;100218.52;3437797;82;98789;-88
2022/08/28 13:31:38;;;;;;;9.98;7.03;;;;;;;26.84;68.20;100229.58;3450504;82;30326;-88
2022/08/28 13:36:49;;;;;;;13.75;8.35;;;;;;;26.71;68.28;100219.23;3441885;82;98627;-89
2022/08/28 13:42:02;;;;;;;13.22;7.85;;;;;;;26.54;68.77;100219.61;3445560;82;25950;-88
2022/08/28 13:47:08;;;;;;;10.98;7.60;;;;;;;26.41;68.73;100218.38;3377244;83;98747;-89
2022/08/28 13:52:09;;;;;;;10.35;7.60;;;;;;;26.40;69.08;100220.44;3374091;85;32190;-90
2022/08/28 13:57:12;;;;;;;13.75;7.15;;;;;;;26.35;69.18;100214.07;3395084;85;99056;-88
2022/08/28 14:07:33;;;;;;;10.30;6.87;;;;;;;26.34;69.24;100230.86;3502464;83;99234;-87
2022/08/28 14:12:35;;;;;;;9.78;6.40;;;;;;;26.32;69.18;100233.37;3518502;81;31692;-86
2022/08/28 14:17:36;;;;;;;14.10;6.00;;;;;;;26.30;69.15;100231.69;3498954;82;98530;-88
2022/08/28 14:22:37;;;;;;;7.55;5.10;;;;;;;26.28;69.19;100233.44;3509765;83;31718;-87
2022/08/28 14:27:38;;;;;;;9.00;4.70;;;;;;;26.31;69.16;100232.48;3490140;81;98856;-88
2022/08/28 14:32:39;;;;;;;11.33;5.60;;;;;;;26.35;69.06;100240.87;3502508;82;42135;-87
2022/08/28 14:37:41;;;;;;;7.55;4.45;;;;;;;26.33;68.92;100241.22;3477881;82;99045;-87
2022/08/28 14:42:42;;;;;;;9.35;5.08;;;;;;;26.27;68.81;100245.34;3500803;82;31698;-86
2022/08/28 14:47:44;;;;;;;10.68;4.35;;;;;;;26.19;69.15;100246.23;3493561;82;98832;-87
2022/08/28 14:52:45;;;;;;;8.18;4.15;;;;;;;26.10;68.93;100248.53;3489484;82;32245;-85
2022/08/28 14:57:46;;;;;;;6.67;3.80;;;;;;;25.97;68.96;100250.87;3477334;83;98808;-88
2022/08/28 15:02:47;;;;;;;7.95;4.03;;;;;;;25.91;69.23;100245.77;3461334;83;32327;-87
2022/08/28 15:07:48;;;;;;;8.73;4.47;;;;;;;25.82;69.42;100252.88;3453944;83;98808;-87
2022/08/28 15:12:49;;;;;;;9.80;4.60;;;;;;;25.78;69.51;100248.70;3467874;82;32293;-87
2022/08/28 15:17:53;;;;;;;7.87;4.17;;;;;;;25.80;69.78;100252.59;3449683;83;98687;-87
2022/08/28 15:22:54;;;;;;;7.90;4.30;;;;;;;25.75;69.70;100249.03;3456792;83;31710;-87
2022/08/28 15:27:56;;;;;;;8.13;4.22;;;;;;;25.74;69.73;100252.33;3459377;83;98724;-87
2022/08/28 15:32:57;;;;;;;7.05;3.50;;;;;;;25.73;69.66;100253.59;3470380;83;32185;-87
2022/08/28 15:37:58;;;;;;;9.28;4.75;;;;;;;25.63;69.62;100251.50;3458419;83;98809;-88
2022/08/28 15:42:59;;;;;;;8.08;4.10;;;;;;;25.57;69.62;100256.88;3469244;83;32776;-86
2022/08/28 15:48:00;;;;;;;6.70;3.77;;;;;;;25.45;69.78;100253.70;3457633;82;98809;-87
2022/08/28 15:53:02;;;;;;;9.18;5.00;;;;;;;25.44;69.93;100257.14;3471220;83;32405;-88
2022/08/28 15:58:04;;;;;;;7.22;3.70;;;;;;;25.42;69.79;100267.33;3489778;82;98799;-88
2022/08/28 16:03:05;;;;;;;6.20;3.10;;;;;;;25.36;69.82;100267.23;3509009;82;31868;-86
2022/08/28 16:08:09;;;;;;;7.58;3.67;;;;;;;25.21;69.80;100272.62;3500998;82;99029;-88
2022/08/28 16:13:10;;;;;;;7.37;3.37;;;;;;;25.07;70.07;100281.16;3504282;82;31742;-87
2022/08/28 16:18:12;;;;;;;7.58;3.37;;;;;;;24.92;70.17;100280.95;3501483;82;98710;-86
2022/08/28 16:23:14;;;;;;;8.88;3.50;;;;;;;24.85;70.49;100274.28;3506726;82;32332;-87
2022/08/28 16:28:15;;;;;;;7.08;3.55;;;;;;;24.76;70.66;100269.48;3487790;82;98514;-87
2022/08/28 16:33:19;;;;;;;5.47;3.52;;;;;;;24.72;70.75;100287.78;3507560;82;32382;-87
2022/08/28 16:38:19;;;;;;;11.35;3.95;;;;;;;24.63;70.97;100285.78;3490716;82;98556;-88
2022/08/28 16:43:20;;;;;;;6.50;3.52;;;;;;;24.52;71.08;100292.52;3499660;83;31765;-88
2022/08/28 16:48:21;;;;;;;6.33;3.03;;;;;;;24.45;71.18;100295.69;3487309;82;98912;-88
2022/08/28 16:53:22;;;;;;;5.30;3.00;;;;;;;24.35;71.42;100294.80;3497053;82;31656;-89
2022/08/28 16:58:24;;;;;;;6.33;3.12;;;;;;;24.23;71.65;100302.16;3487675;82;98795;-87
2022/08/28 17:03:42;;;;;;;;;;;;;;;;;;;;;
2022/08/28 17:08:30;;;;;;;6.50;3.30;;;;;;;24.06;72.02;100295.95;3475391;82;98719;-87
2022/08/28 17:13:33;;;;;;;7.20;3.92;;;;;;;23.97;72.30;100293.17;3499376;82;31737;-87
2022/08/28 17:18:40;;;;;;;6.35;3.33;;;;;;;23.89;72.49;100302.55;3490735;82;98720;-88
2022/08/28 17:23:41;;;;;;;6.45;3.40;;;;;;;23.83;72.57;100309.23;3468425;83;32840;-87
2022/08/28 17:28:44;;;;;;;6.62;3.20;;;;;;;23.75;72.60;100308.00;3491853;82;98553;-86
2022/08/28 17:33:45;;;;;;;5.63;2.90;;;;;;;23.64;72.74;100308.45;3497468;82;25926;-85
2022/08/28 17:38:46;;;;;;;5.67;2.80;;;;;;;23.42;72.91;100319.06;3500883;82;98692;-86
2022/08/28 17:43:48;;;;;;;4.50;2.85;;;;;;;23.33;73.03;100321.84;3494227;82;32237;-87
2022/08/28 17:48:49;;;;;;;4.45;2.55;;;;;;;23.11;73.79;100325.36;3490182;82;98755;-87
2022/08/28 17:53:50;;;;;;;5.30;2.87;;;;;;;23.11;73.79;100325.36;3488489;82;32483;-88
2022/08/28 17:58:51;;;;;;;5.25;2.98;;;;;;;22.98;73.68;100335.16;3487182;82;98507;-88
2022/08/28 18:03:54;;;;;;;5.12;2.87;;;;;;;22.82;74.03;100334.01;3491224;83;31361;-87
2022/08/28 18:08:55;;;;;;;5.25;2.72;;;;;;;22.73;74.52;100346.62;3477846;82;98503;-87
2022/08/28 18:13:58;;;;;;;5.15;3.00;;;;;;;22.63;74.89;100345.01;3484136;82;31666;-87
2022/08/28 18:19:01;;;;;;;6.28;3.30;;;;;;;22.53;75.39;100358.22;3476891;82;98793;-88
2022/08/28 18:24:03;;;;;;;6.00;3.40;;;;;;;22.39;75.81;100374.14;3495691;82;72672;-87
2022/08/28 18:29:04;;;;;;;8.63;3.67;;;;;;;22.24;76.13;100384.31;3489541;83;98714;-88
2022/08/28 18:34:06;;;;;;;6.92;3.45;;;;;;;22.12;76.78;100380.20;3480282;83;44415;-87
2022/08/28 18:39:08;;;;;;;7.70;3.98;;;;;;;22.03;77.20;100382.93;3482444;82;98866;-86
2022/08/28 18:44:09;;;;;;;6.28;3.90;;;;;;;21.95;77.53;100391.41;3502953;82;31657;-88
2022/08/28 18:49:11;;;;;;;7.15;3.80;;;;;;;21.87;77.90;100397.12;3498400;82;98754;-89
2022/08/28 18:54:16;;;;;;;8.80;4.35;;;;;;;21.76;78.45;100404.51;3490551;83;32290;-89
2022/08/28 18:59:18;;;;;;;7.50;4.30;;;;;;;21.71;78.88;100407.09;3497274;82;98369;-90
2022/08/28 19:04:18;;;;;;;6.70;3.75;;;;;;;21.64;79.14;100408.71;3493008;81;29758;-89
2022/08/28 19:09:20;;;;;;;6.45;3.75;;;;;;;21.57;79.57;100407.56;3493163;82;98386;-90
2022/08/28 19:14:21;;;;;;;10.40;4.85;;;;;;;21.53;79.94;100404.09;3498361;82;35258;-89
2022/08/28 19:19:22;;;;;;;6.72;3.85;;;;;;;21.46;80.36;100416.91;3484810;82;98564;-89
2022/08/28 19:24:32;;;;;;;6.67;3.95;;;;;;;21.38;80.80;100417.79;3494639;82;29827;-90
2022/08/28 19:29:33;;;;;;;8.43;4.62;;;;;;;21.31;81.01;100419.40;3484680;82;98374;-91
2022/08/28 19:34:34;;;;;;;9.33;4.97;;;;;;;21.26;81.29;100424.80;3487278;82;31685;-90
2022/08/28 19:39:35;;;;;;;9.35;5.47;;;;;;;21.21;81.67;100435.16;3488984;82;98310;-90
2022/08/28 19:44:37;;;;;;;11.10;5.58;;;;;;;21.17;82.01;100446.47;3498238;82;29825;-88
2022/08/28 19:49:39;;;;;;;8.35;4.20;;;;;;;21.13;82.32;100446.39;3485431;83;98616;-88
2022/08/28 19:54:41;;;;;;;8.83;5.37;;;;;;;21.07;82.43;100451.78;3504237;82;31639;-89
2022/08/28 19:59:42;;;;;;;11.80;6.03;;;;;;;21.02;82.80;100449.53;3492179;82;98633;-89
2022/08/28 20:04:43;;;;;;;10.30;5.10;;;;;;;20.96;82.85;100450.53;3495357;82;32240;-89
2022/08/28 20:09:45;;;;;;;10.48;5.37;;;;;;;20.90;83.23;100455.91;3386057;85;98705;-90
2022/08/28 20:14:47;;;;;;;8.80;5.10;;;;;;;20.88;83.58;100456.16;3430331;84;31833;-90
2022/08/28 20:19:48;;;;;;;7.87;4.65;;;;;;;20.83;83.47;100460.91;3428560;82;98291;-91
2022/08/28 20:24:49;;;;;;;9.30;4.53;;;;;;;20.77;83.63;100466.25;3417850;84;31696;-89
2022/08/28 20:29:51;;;;;;;9.05;5.33;;;;;;;20.72;84.00;100467.43;3422312;83;98588;-89
2022/08/28 20:34:52;;;;;;;11.25;5.25;;;;;;;20.69;84.33;100468.30;3429634;84;32135;-90
2022/08/28 20:39:57;;;;;;;8.98;5.08;;;;;;;20.65;84.45;100477.44;3416287;84;98752;-90
2022/08/28 20:44:58;;;;;;;7.60;4.87;;;;;;;20.62;84.63;100486.09;3430084;84;38663;-89
2022/08/28 20:50:00;;;;;;;8.47;5.13;;;;;;;20.63;84.97;100488.27;3424512;84;98463;-90
2022/08/28 20:55:02;;;;;;;8.38;4.92;;;;;;;20.63;84.96;100489.66;3427315;84;30937;-90
2022/08/28 21:00:07;;;;;;;7.90;4.70;;;;;;;20.59;85.07;100490.40;3383829;84;98410;-89
2022/08/28 21:05:08;;;;;;;14.28;5.67;;;;;;;20.56;84.94;100489.88;3328043;87;33537;-90
2022/08/28 21:10:10;;;;;;;10.48;5.47;;;;;;;20.55;85.33;100487.67;3318004;88;99243;-89
2022/08/28 21:15:12;;;;;;;9.68;6.20;;;;;;;20.55;85.23;100497.47;3381410;86;33757;-88
2022/08/28 21:20:15;;;;;;;8.80;5.37;;;;;;;20.54;85.31;100508.48;3301513;87;98654;-91
2022/08/28 21:25:17;;;;;;;9.75;5.90;;;;;;;20.55;85.38;100507.25;3423956;85;139992;-90
2022/08/28 21:30:21;;;;;;;9.98;5.80;;;;;;;20.55;85.34;100501.66;3426088;85;98462;-89
2022/08/28 21:35:22;;;;;;;10.00;5.00;;;;;;;20.53;85.25;100510.31;3437386;84;31767;-90
2022/08/28 21:40:23;;;;;;;8.90;5.33;;;;;;;20.52;85.35;100519.34;3423533;83;98680;-89
2022/08/28 21:45:24;;;;;;;8.20;5.12;;;;;;;20.53;85.65;100520.11;3440004;84;30518;-89
2022/08/28 21:50:27;;;;;;;9.35;5.58;;;;;;;20.51;85.58;100515.58;3428399;84;98512;-88
2022/08/28 21:55:28;;;;;;;11.00;5.55;;;;;;;20.48;85.52;100524.23;3458319;84;31711;-89
2022/08/28 22:00:30;;;;;;;12.18;6.05;;;;;;;20.43;85.38;100531.00;3470439;82;98545;-89
2022/08/28 22:05:32;;;;;;;9.00;5.33;;;;;;;20.38;85.75;100530.13;3497355;82;31710;-89
2022/08/28 22:10:33;;;;;;;9.98;5.42;;;;;;;20.34;85.86;100534.42;3484906;83;98662;-90
2022/08/28 22:15:34;;;;;;;10.03;6.35;;;;;;;20.31;85.99;100531.09;3495891;82;78963;-90
2022/08/28 22:25:57;;;;;;;9.83;6.45;;;;;;;20.19;86.26;100536.62;3483157;82;98629;-87
2022/08/28 22:30:58;;;;;;;12.40;6.00;;;;;;;20.09;86.36;100544.06;3464454;82;36705;-90
2022/08/28 22:35:59;;;;;;;10.80;6.67;;;;;;;20.02;86.40;100546.22;3487388;82;98640;-89
2022/08/28 22:41:01;;;;;;;9.65;6.33;;;;;;;19.97;86.38;100543.95;3502091;82;31666;-89
2022/08/28 22:46:03;;;;;;;12.28;6.35;;;;;;;19.91;86.56;100539.52;3490203;82;98786;-89
2022/08/28 22:51:10;;;;;;;12.95;7.20;;;;;;;19.82;86.62;100544.92;3496923;84;29839;-89
2022/08/28 22:56:12;;;;;;;10.40;6.03;;;;;;;19.78;87.00;100546.23;3490839;83;99038;-89
2022/08/28 23:01:18;;;;;;;11.97;6.47;;;;;;;19.72;87.05;100545.96;3474202;82;31644;-89
2022/08/28 23:06:22;;;;;;;12.95;6.75;;;;;;;19.71;87.33;100544.99;3479812;82;193884;-89
2022/08/28 23:11:23;;;;;;;18.37;6.47;;;;;;;19.70;87.59;100553.20;3478890;82;32169;-90
2022/08/28 23:16:24;;;;;;;12.43;6.67;;;;;;;19.70;87.89;100556.80;3466043;82;99181;-89
2022/08/28 23:21:27;;;;;;;12.37;6.50;;;;;;;19.64;87.78;100548.77;3475123;82;91926;-90
2022/08/28 23:26:28;;;;;;;10.70;6.70;;;;;;;19.60;87.95;100554.23;3476406;82;98670;-90
2022/08/28 23:31:29;;;;;;;12.43;6.92;;;;;;;19.57;88.18;100556.52;3475994;82;31941;-89
2022/08/28 23:36:31;;;;;;;13.53;7.42;;;;;;;19.59;88.42;100561.05;3472460;82;99060;-90
2022/08/28 23:41:33;;;;;;;11.03;7.05;;;;;;;19.59;88.54;100559.65;3471783;83;244545;-90